Time;durP1;ratioP1;P1;durP2;ratioP2;P2;SDS_P1;SDS_P2;PMS_P1;PMS_P2;Temp;Humidity;BMP_temperature;BMP_pressure;BME280_temperature;BME280_humidity;BME280_pressure;Samples;Min_cycle;Max_cycle;Signal;HPM_P1;HPM_P2
2022/05/31 00:00:58;;;;;;;1.67;1.23;;;16.90;53.60;;;;;;4977609;28;20109;-85
2022/05/31 00:03:24;;;;;;;1.85;1.70;;;16.90;53.60;;;;;;4978797;28;20077;-85
2022/05/31 00:05:50;;;;;;;1.75;1.30;;;16.90;53.60;;;;;;4961891;28;20082;-85
2022/05/31 00:08:16;;;;;;;1.88;1.45;;;16.80;53.60;;;;;;4961725;28;20023;-84
2022/05/31 00:10:42;;;;;;;1.48;1.33;;;16.80;53.70;;;;;;4977462;28;20096;-84
2022/05/31 00:13:08;;;;;;;1.45;1.35;;;16.80;53.70;;;;;;4961636;28;20043;-85
2022/05/31 00:15:33;;;;;;;1.73;1.52;;;16.80;53.70;;;;;;4977980;28;20130;-85
2022/05/31 00:18:02;;;;;;;1.60;1.50;;;16.80;53.70;;;;;;4978566;28;20154;-86
2022/05/31 00:20:27;;;;;;;1.52;1.35;;;16.70;53.80;;;;;;4976798;28;20030;-85
2022/05/31 00:22:53;;;;;;;2.08;1.60;;;16.70;53.80;;;;;;4977521;28;20506;-84
2022/05/31 00:25:19;;;;;;;1.63;1.52;;;16.70;53.80;;;;;;4977369;28;20030;-84
2022/05/31 00:27:45;;;;;;;1.52;1.38;;;16.60;53.80;;;;;;4961624;28;20458;-84
2022/05/31 00:30:13;;;;;;;1.70;1.50;;;16.60;53.80;;;;;;4961421;28;20026;-85
2022/05/31 00:32:43;;;;;;;2.40;1.58;;;16.60;53.90;;;;;;4961196;28;20053;-85
2022/05/31 00:35:17;;;;;;;2.28;1.77;;;16.60;53.90;;;;;;4976675;28;20026;-84
2022/05/31 00:37:43;;;;;;;2.28;1.60;;;16.50;53.90;;;;;;4960952;28;20035;-84
2022/05/31 00:40:10;;;;;;;1.90;1.70;;;16.50;53.90;;;;;;4977112;28;20477;-85
2022/05/31 00:42:46;;;;;;;1.98;1.70;;;16.50;54.00;;;;;;4977070;28;20027;-85
2022/05/31 00:45:12;;;;;;;2.53;1.80;;;16.40;54.00;;;;;;4977028;28;20027;-85
2022/05/31 00:47:38;;;;;;;2.05;1.77;;;16.50;54.00;;;;;;4944728;28;20027;-85
2022/05/31 00:50:08;;;;;;;1.67;1.45;;;16.40;54.00;;;;;;4945096;28;20023;-85
2022/05/31 00:52:45;;;;;;;1.83;1.40;;;16.40;54.10;;;;;;4978327;28;20062;-84
2022/05/31 00:55:19;;;;;;;1.77;1.50;;;16.40;54.70;;;;;;4977100;28;20026;-85
2022/05/31 00:57:56;;;;;;;1.83;1.63;;;16.30;54.10;;;;;;4960969;28;20026;-85
2022/05/31 01:00:22;;;;;;;2.17;1.60;;;16.30;54.10;;;;;;4976966;28;20030;-84
2022/05/31 01:02:49;;;;;;;2.13;1.58;;;16.30;54.10;;;;;;4961229;28;20359;-84
2022/05/31 01:05:17;;;;;;;2.20;1.67;;;16.30;54.20;;;;;;4959967;28;20035;-84
2022/05/31 01:07:43;;;;;;;1.70;1.55;;;16.20;54.20;;;;;;4977535;28;20027;-84
2022/05/31 01:10:11;;;;;;;1.83;1.67;;;16.20;54.20;;;;;;4960441;28;20575;-85
2022/05/31 01:12:48;;;;;;;2.38;1.80;;;16.20;54.20;;;;;;4961980;28;20045;-84
2022/05/31 01:15:43;;;;;;;2.30;1.60;;;16.20;54.30;;;;;;4962042;28;20038;-84
2022/05/31 01:18:46;;;;;;;1.90;1.65;;;16.10;54.20;;;;;;4945218;29;20031;-85
2022/05/31 01:21:31;;;;;;;1.63;1.50;;;16.10;54.20;;;;;;4956524;29;20062;-85
2022/05/31 01:24:21;;;;;;;2.38;1.80;;;16.00;54.30;;;;;;4958051;28;20031;-84
2022/05/31 01:27:00;;;;;;;2.33;1.67;;;16.00;54.30;;;;;;4976111;28;20030;-85
2022/05/31 01:29:38;;;;;;;2.35;1.80;;;16.00;54.40;;;;;;4960596;28;20038;-85
2022/05/31 01:32:07;;;;;;;1.98;1.60;;;15.90;54.40;;;;;;4976510;28;20104;-84
2022/05/31 01:34:48;;;;;;;2.45;1.80;;;15.90;54.40;;;;;;4977152;28;20023;-84
2022/05/31 01:37:14;;;;;;;2.08;1.60;;;15.90;54.50;;;;;;4960175;28;20031;-84
2022/05/31 01:39:43;;;;;;;2.50;1.90;;;15.90;54.50;;;;;;4977272;28;20035;-83
2022/05/31 01:42:36;;;;;;;2.17;1.50;;;15.90;54.50;;;;;;4976050;28;20034;-84
2022/05/31 01:45:12;;;;;;;1.90;1.55;;;15.90;54.60;;;;;;4959859;28;20063;-84
2022/05/31 01:47:38;;;;;;;2.15;1.50;;;15.80;54.50;;;;;;4976214;28;20170;-84
2022/05/31 01:50:08;;;;;;;2.58;1.90;;;15.80;54.50;;;;;;4943781;28;20022;-84
2022/05/31 01:52:35;;;;;;;1.92;1.52;;;15.70;55.20;;;;;;4976114;28;20120;-85
2022/05/31 01:55:01;;;;;;;2.72;1.60;;;15.70;54.60;;;;;;4976402;28;20073;-84
2022/05/31 01:57:30;;;;;;;1.95;1.67;;;15.70;54.70;;;;;;4959567;28;20019;-84
2022/05/31 02:00:08;;;;;;;2.17;1.77;;;15.70;54.70;;;;;;4959424;28;20435;-85
2022/05/31 02:02:40;;;;;;;1.60;1.50;;;15.70;54.80;;;;;;4976401;28;20534;-85
2022/05/31 02:05:06;;;;;;;3.10;1.77;;;15.70;54.70;;;;;;4959191;28;20460;-84
2022/05/31 02:07:33;;;;;;;1.73;1.45;;;15.60;54.70;;;;;;4959429;28;20030;-84
2022/05/31 02:09:59;;;;;;;1.95;1.70;;;15.60;54.80;;;;;;4959375;28;20022;-85
2022/05/31 02:12:30;;;;;;;2.05;1.70;;;15.60;54.80;;;;;;4960390;28;20034;-84
2022/05/31 02:15:15;;;;;;;1.63;1.52;;;15.50;54.80;;;;;;4976165;28;20081;-85
2022/05/31 02:18:01;;;;;;;2.60;1.88;;;15.50;54.80;;;;;;4974453;28;20526;-84
2022/05/31 02:20:46;;;;;;;2.75;1.98;;;15.50;54.80;;;;;;4975892;28;20046;-85
2022/05/31 02:23:12;;;;;;;1.85;1.45;;;15.50;54.90;;;;;;4960175;28;20035;-84
2022/05/31 02:25:38;;;;;;;1.70;1.60;;;15.50;55.00;;;;;;4975145;28;20384;-84
2022/05/31 02:28:04;;;;;;;1.70;1.60;;;15.40;54.90;;;;;;4975526;28;20034;-84
2022/05/31 02:30:30;;;;;;;2.03;1.63;;;15.40;55.00;;;;;;4975413;28;20031;-85
2022/05/31 02:32:56;;;;;;;2.75;1.77;;;15.40;55.00;;;;;;4959350;28;20034;-85
2022/05/31 02:35:22;;;;;;;2.88;1.90;;;15.40;55.00;;;;;;4958645;28;20031;-84
2022/05/31 02:37:47;;;;;;;2.00;1.70;;;15.40;55.10;;;;;;4958915;28;20058;-85
2022/05/31 02:40:13;;;;;;;2.30;1.70;;;15.40;55.10;;;;;;4959072;28;20019;-84
2022/05/31 02:42:39;;;;;;;1.63;1.52;;;15.40;55.10;;;;;;4974933;28;20031;-84
2022/05/31 02:45:08;;;;;;;1.60;1.50;;;15.30;55.10;;;;;;4959657;28;20439;-84
2022/05/31 02:47:33;;;;;;;1.85;1.70;;;15.30;55.10;;;;;;4974886;28;20022;-85
2022/05/31 02:49:59;;;;;;;1.85;1.70;;;15.30;55.10;;;;;;4943190;28;20022;-84
2022/05/31 02:52:25;;;;;;;2.47;1.65;;;15.30;55.20;;;;;;4958890;28;20030;-85
2022/05/31 02:54:51;;;;;;;2.28;1.80;;;15.30;55.20;;;;;;4959650;28;20027;-84
2022/05/31 02:57:19;;;;;;;1.90;1.60;;;15.30;55.30;;;;;;4959092;28;20027;-83
2022/05/31 03:00:15;;;;;;;1.90;1.70;;;15.20;55.30;;;;;;4962659;28;20043;-84
2022/05/31 03:02:52;;;;;;;1.65;1.55;;;15.20;55.20;;;;;;4974604;28;20514;-83
2022/05/31 03:05:37;;;;;;;2.47;1.90;;;15.20;55.30;;;;;;4961275;28;20110;-84
2022/05/31 03:08:09;;;;;;;2.35;1.65;;;15.20;55.30;;;;;;4974615;28;20428;-83
2022/05/31 03:11:05;;;;;;;2.35;1.90;;;15.20;55.30;;;;;;4962455;28;20039;-84
2022/05/31 03:13:32;;;;;;;2.00;1.80;;;15.10;55.30;;;;;;4974652;28;20031;-84
2022/05/31 03:16:02;;;;;;;1.73;1.63;;;15.10;55.40;;;;;;4958162;28;20031;-84
2022/05/31 03:18:42;;;;;;;1.70;1.60;;;15.10;55.40;;;;;;4958464;28;20404;-84
2022/05/31 03:21:17;;;;;;;1.73;1.60;;;15.10;55.50;;;;;;4975687;28;20077;-84
2022/05/31 03:23:49;;;;;;;1.98;1.70;;;15.00;55.40;;;;;;4976264;28;20047;-84
2022/05/31 03:26:17;;;;;;;1.92;1.73;;;15.10;55.50;;;;;;4975489;28;20098;-84
2022/05/31 03:28:43;;;;;;;2.15;1.70;;;15.00;55.50;;;;;;4960284;28;20050;-84
2022/05/31 03:31:09;;;;;;;1.85;1.70;;;15.00;55.50;;;;;;4978389;28;20486;-84
2022/05/31 03:33:35;;;;;;;2.33;1.85;;;15.00;55.50;;;;;;4962071;28;20031;-84
2022/05/31 03:36:02;;;;;;;3.05;2.00;;;15.00;55.50;;;;;;4961972;28;20039;-82
2022/05/31 03:38:38;;;;;;;1.77;1.65;;;15.00;55.60;;;;;;4963668;28;20110;-84
2022/05/31 03:41:04;;;;;;;2.17;1.83;;;15.00;55.60;;;;;;4978137;28;20130;-84
2022/05/31 03:43:52;;;;;;;2.42;1.95;;;15.00;55.60;;;;;;4965178;28;20122;-84
2022/05/31 03:46:21;;;;;;;2.35;1.90;;;15.00;55.60;;;;;;4978006;28;20038;-84
2022/05/31 03:49:14;;;;;;;2.92;1.70;;;15.00;55.60;;;;;;4955175;28;20105;-84
2022/05/31 03:51:50;;;;;;;2.15;1.95;;;14.90;55.60;;;;;;4963823;28;20054;-84
2022/05/31 03:54:41;;;;;;;2.03;1.85;;;14.90;55.60;;;;;;4962381;28;20038;-84
2022/05/31 03:57:16;;;;;;;2.22;1.83;;;14.90;55.60;;;;;;4977750;28;20038;-84
2022/05/31 03:59:45;;;;;;;2.30;1.98;;;14.90;55.80;;;;;;4978088;28;20019;-84
2022/05/31 04:02:12;;;;;;;2.08;1.80;;;14.90;55.70;;;;;;4946495;28;20117;-84
2022/05/31 04:04:39;;;;;;;2.38;2.03;;;14.80;55.70;;;;;;4946600;28;20042;-84
2022/05/31 04:07:04;;;;;;;2.67;2.13;;;14.80;55.70;;;;;;4977368;28;20019;-84
2022/05/31 04:09:32;;;;;;;2.20;1.98;;;14.80;55.70;;;;;;4961583;28;20035;-83
2022/05/31 04:11:59;;;;;;;2.28;2.05;;;14.80;55.70;;;;;;4961322;28;20023;-84
2022/05/31 04:14:47;;;;;;;2.35;2.10;;;14.80;55.80;;;;;;4977188;28;20080;-84
2022/05/31 04:17:13;;;;;;;2.80;2.00;;;14.80;55.70;;;;;;4960949;28;20062;-84
2022/05/31 04:19:39;;;;;;;2.95;2.10;;;14.80;55.80;;;;;;4961304;28;20419;-85
2022/05/31 04:22:05;;;;;;;2.53;2.20;;;14.80;56.50;;;;;;4976848;28;20050;-85
2022/05/31 04:24:32;;;;;;;2.90;2.05;;;14.80;55.90;;;;;;4961518;28;20069;-85
2022/05/31 04:27:17;;;;;;;2.05;1.85;;;14.70;55.90;;;;;;4977887;28;20041;-85
2022/05/31 04:30:02;;;;;;;2.60;2.00;;;14.70;55.90;;;;;;4977729;28;20125;-85
2022/05/31 04:33:00;;;;;;;2.80;2.00;;;14.70;55.90;;;;;;4943717;28;20411;-84
2022/05/31 04:35:32;;;;;;;2.25;2.00;;;14.70;55.90;;;;;;4962596;28;20474;-84
2022/05/31 04:37:57;;;;;;;2.95;2.10;;;14.70;56.00;;;;;;4976854;28;20027;-84
2022/05/31 04:40:43;;;;;;;2.80;2.05;;;14.70;56.00;;;;;;4951933;28;20093;-82
2022/05/31 04:43:18;;;;;;;3.13;2.22;;;14.70;56.00;;;;;;4965560;28;20071;-80
2022/05/31 04:46:22;;;;;;;2.13;1.92;;;14.70;56.00;;;;;;4986127;28;20431;-80
2022/05/31 04:48:58;;;;;;;2.45;1.95;;;14.70;56.00;;;;;;4980928;28;20064;-81
2022/05/31 04:51:29;;;;;;;2.85;2.30;;;14.70;56.10;;;;;;4996142;28;20332;-81
2022/05/31 04:53:57;;;;;;;2.30;1.92;;;14.70;56.20;;;;;;4995362;28;20023;-80
2022/05/31 04:56:46;;;;;;;2.67;2.13;;;14.60;56.10;;;;;;4972463;28;20034;-80
2022/05/31 04:59:13;;;;;;;2.40;2.17;;;14.70;56.20;;;;;;4989773;28;20383;-82
2022/05/31 05:01:40;;;;;;;2.47;2.13;;;14.70;56.20;;;;;;4960009;28;20037;-83
2022/05/31 05:04:18;;;;;;;2.42;2.10;;;14.70;56.20;;;;;;4938101;29;20042;-84
2022/05/31 05:06:51;;;;;;;2.22;1.92;;;14.70;56.30;;;;;;4957055;29;20035;-82
2022/05/31 05:09:18;;;;;;;2.33;2.13;;;14.70;56.30;;;;;;4957015;29;20062;-81
2022/05/31 05:12:04;;;;;;;2.88;2.47;;;14.60;56.30;;;;;;4967121;28;20038;-80
2022/05/31 05:14:35;;;;;;;3.20;2.28;;;14.70;56.30;;;;;;4960187;28;20030;-81
2022/05/31 05:17:05;;;;;;;3.58;2.13;;;14.60;56.30;;;;;;4960784;28;20039;-81
2022/05/31 05:19:37;;;;;;;2.88;2.40;;;14.70;56.40;;;;;;4976389;28;20098;-82
2022/05/31 05:22:03;;;;;;;3.10;2.33;;;14.60;56.30;;;;;;4976029;28;20125;-84
2022/05/31 05:24:29;;;;;;;3.22;2.50;;;14.70;56.40;;;;;;4960484;28;20062;-82
2022/05/31 05:27:14;;;;;;;3.57;2.57;;;14.60;56.40;;;;;;4976160;28;20042;-82
2022/05/31 05:33:01;;;;;;;2.70;2.08;;;14.70;56.40;;;;;;4932036;29;20054;-81
2022/05/31 05:35:29;;;;;;;2.95;2.30;;;14.70;56.40;;;;;;4956649;29;20031;-80
2022/05/31 05:38:08;;;;;;;2.78;2.25;;;14.70;56.50;;;;;;4941847;29;20073;-81
2022/05/31 05:40:53;;;;;;;2.63;2.03;;;14.70;56.50;;;;;;4944012;28;20039;-81
2022/05/31 05:43:21;;;;;;;2.88;2.50;;;14.70;56.50;;;;;;4958324;28;20037;-80
2022/05/31 05:45:55;;;;;;;3.50;2.50;;;14.70;56.50;;;;;;4960699;28;20031;-83
2022/05/31 05:48:21;;;;;;;2.60;2.40;;;14.70;56.50;;;;;;4959737;28;20031;-82
2022/05/31 05:50:48;;;;;;;2.22;1.98;;;14.70;56.60;;;;;;4957427;28;20319;-82
2022/05/31 05:53:32;;;;;;;3.63;2.50;;;14.70;56.60;;;;;;4972261;28;20037;-81
2022/05/31 05:56:16;;;;;;;3.50;2.38;;;14.70;56.50;;;;;;4949873;28;20046;-80
2022/05/31 05:59:01;;;;;;;3.15;2.50;;;14.70;56.60;;;;;;4972044;28;20439;-82
2022/05/31 06:01:59;;;;;;;3.05;2.38;;;14.70;56.60;;;;;;4972529;28;20046;-82
2022/05/31 06:04:51;;;;;;;2.70;2.40;;;14.70;56.70;;;;;;4968613;28;20035;-83
2022/05/31 06:07:40;;;;;;;3.30;2.55;;;14.70;56.70;;;;;;4971775;28;20023;-83
2022/05/31 06:10:18;;;;;;;2.78;2.10;;;14.70;56.90;;;;;;4953340;28;20031;-84
2022/05/31 06:12:51;;;;;;;2.92;2.20;;;14.70;56.80;;;;;;4971062;28;20110;-83
2022/05/31 06:15:21;;;;;;;3.05;2.50;;;14.70;56.80;;;;;;4971845;28;20031;-83
2022/05/31 06:17:50;;;;;;;3.42;2.63;;;14.70;56.80;;;;;;4971813;28;20038;-84
2022/05/31 06:20:16;;;;;;;2.67;2.30;;;14.70;56.80;;;;;;4958394;28;20468;-85
2022/05/31 06:22:42;;;;;;;2.42;2.17;;;14.80;56.90;;;;;;4955731;28;20054;-82
2022/05/31 06:25:17;;;;;;;3.38;2.50;;;14.80;56.90;;;;;;4956436;28;20074;-83
2022/05/31 06:27:56;;;;;;;2.63;2.38;;;14.80;56.90;;;;;;4943435;28;20023;-83
2022/05/31 06:30:24;;;;;;;2.75;2.33;;;14.80;56.80;;;;;;4960006;28;20025;-83
2022/05/31 06:32:50;;;;;;;3.75;2.92;;;14.80;56.90;;;;;;4955762;28;20023;-83
2022/05/31 06:35:15;;;;;;;4.15;2.88;;;14.80;56.90;;;;;;4955411;28;20130;-83
2022/05/31 06:38:03;;;;;;;3.13;2.53;;;14.90;56.90;;;;;;4950548;28;20431;-82
2022/05/31 06:40:30;;;;;;;3.17;2.35;;;14.90;56.90;;;;;;4964140;28;20121;-83
2022/05/31 06:43:05;;;;;;;3.50;2.80;;;14.90;56.90;;;;;;4964959;28;20117;-84
2022/05/31 06:45:50;;;;;;;3.67;2.58;;;14.90;56.90;;;;;;4972818;28;20439;-82
2022/05/31 06:48:31;;;;;;;3.42;2.63;;;14.90;56.90;;;;;;4972841;28;20046;-83
2022/05/31 06:51:14;;;;;;;3.30;2.47;;;15.00;57.00;;;;;;4971636;28;20038;-82
2022/05/31 06:57:03;;;;;;;2.88;2.55;;;14.90;56.90;;;;;;4972663;28;20100;-82
2022/05/31 06:59:33;;;;;;;3.00;2.50;;;15.00;56.90;;;;;;4952336;28;20038;-83
2022/05/31 07:02:05;;;;;;;3.20;2.83;;;15.00;57.00;;;;;;4968762;28;20886;-83
2022/05/31 07:04:35;;;;;;;3.45;2.45;;;15.00;57.00;;;;;;4966613;28;20121;-82
2022/05/31 07:07:01;;;;;;;3.15;2.67;;;15.00;57.00;;;;;;4975188;28;20074;-83
2022/05/31 07:09:53;;;;;;;3.55;2.78;;;15.10;57.10;;;;;;4957089;28;20468;-83
2022/05/31 07:12:38;;;;;;;3.25;2.63;;;15.10;57.10;;;;;;4968316;28;20037;-82
2022/05/31 07:15:32;;;;;;;3.53;2.58;;;15.10;57.00;;;;;;4968039;28;20047;-84
2022/05/31 07:18:36;;;;;;;4.22;2.80;;;15.10;57.00;;;;;;4976348;28;20459;-84
2022/05/31 07:21:02;;;;;;;4.15;2.78;;;15.10;57.00;;;;;;4956327;28;20031;-86
2022/05/31 07:23:29;;;;;;;3.08;2.58;;;15.10;57.10;;;;;;4964350;28;20173;-86
2022/05/31 07:26:03;;;;;;;3.75;2.70;;;15.10;57.10;;;;;;4981044;28;20057;-85
2022/05/31 07:28:32;;;;;;;3.80;2.80;;;15.20;57.20;;;;;;4957031;28;20380;-84
2022/05/31 07:31:00;;;;;;;3.90;2.80;;;15.20;57.10;;;;;;4943780;28;20037;-88
2022/05/31 07:33:30;;;;;;;3.45;2.83;;;15.20;57.10;;;;;;4959771;28;20026;-85
2022/05/31 07:35:58;;;;;;;3.50;2.72;;;15.30;57.20;;;;;;4959530;28;20118;-83
2022/05/31 07:38:26;;;;;;;3.72;2.78;;;15.20;57.10;;;;;;4975707;28;20023;-83
2022/05/31 07:40:53;;;;;;;3.17;2.60;;;15.30;57.10;;;;;;4977998;28;20482;-85
2022/05/31 07:43:19;;;;;;;3.53;2.85;;;15.30;57.10;;;;;;4949823;28;20026;-85
2022/05/31 07:45:47;;;;;;;3.70;2.95;;;15.30;57.10;;;;;;4940912;28;20035;-86
2022/05/31 07:48:14;;;;;;;3.85;2.95;;;15.30;57.10;;;;;;4945353;28;20034;-85
2022/05/31 07:50:41;;;;;;;3.72;2.72;;;15.40;57.20;;;;;;4959717;28;20027;-84
2022/05/31 07:53:36;;;;;;;3.38;2.83;;;15.40;57.20;;;;;;4970222;28;20090;-85
2022/05/31 07:56:21;;;;;;;3.72;3.05;;;15.40;57.10;;;;;;4961067;28;20136;-85
2022/05/31 07:59:06;;;;;;;3.60;2.58;;;15.40;57.10;;;;;;4976857;28;20057;-87
2022/05/31 08:01:50;;;;;;;3.33;2.75;;;15.40;57.10;;;;;;4980825;28;20041;-85
2022/05/31 08:04:35;;;;;;;3.97;3.10;;;15.50;57.10;;;;;;4961691;28;20070;-84
2022/05/31 08:07:01;;;;;;;5.95;3.17;;;15.50;57.10;;;;;;4961939;28;20062;-86
2022/05/31 08:09:27;;;;;;;3.28;2.85;;;15.50;57.10;;;;;;4958784;28;20105;-85
2022/05/31 08:11:54;;;;;;;4.53;3.08;;;15.50;57.10;;;;;;4956944;28;20078;-84
2022/05/31 08:14:19;;;;;;;3.40;2.83;;;15.60;57.20;;;;;;4957990;28;20030;-85
2022/05/31 08:16:45;;;;;;;3.70;3.08;;;15.60;57.10;;;;;;4975554;28;20035;-87
2022/05/31 08:19:14;;;;;;;3.75;2.83;;;15.60;57.10;;;;;;4982477;28;20030;-87
2022/05/31 08:21:39;;;;;;;5.13;3.10;;;15.60;57.10;;;;;;4958671;28;20441;-86
2022/05/31 08:24:11;;;;;;;3.72;2.80;;;15.70;57.20;;;;;;4975095;28;20109;-86
2022/05/31 08:26:37;;;;;;;4.88;3.10;;;15.70;57.10;;;;;;4957962;28;20037;-86
2022/05/31 08:29:03;;;;;;;3.97;2.85;;;15.70;57.00;;;;;;4958556;28;20031;-83
2022/05/31 08:31:33;;;;;;;4.22;3.10;;;15.80;57.10;;;;;;4971011;28;20045;-83
2022/05/31 08:33:59;;;;;;;3.50;2.85;;;15.80;57.10;;;;;;4953892;29;20078;-83
2022/05/31 08:36:25;;;;;;;4.72;3.17;;;15.80;57.10;;;;;;4970452;28;20015;-82
2022/05/31 08:38:51;;;;;;;4.70;3.13;;;15.90;57.10;;;;;;4974829;28;20596;-83
2022/05/31 08:41:47;;;;;;;3.15;2.53;;;15.90;57.00;;;;;;4960669;28;20097;-82
2022/05/31 08:44:19;;;;;;;3.38;2.53;;;15.90;57.20;;;;;;4961130;28;20472;-83
2022/05/31 08:47:00;;;;;;;3.15;2.65;;;16.00;57.10;;;;;;4957426;28;20019;-85
2022/05/31 08:52:50;;;;;;;3.50;2.83;;;16.00;57.10;;;;;;4972915;28;20069;-84
2022/05/31 08:58:42;;;;;;;3.60;2.80;;;16.10;57.10;;;;;;4974773;28;20522;-86
2022/05/31 09:01:10;;;;;;;3.33;2.53;;;16.10;57.00;;;;;;4950096;28;20476;-85
2022/05/31 09:03:48;;;;;;;3.95;2.95;;;16.10;56.90;;;;;;4957058;28;20048;-85
2022/05/31 09:06:45;;;;;;;4.05;2.75;;;16.20;57.00;;;;;;4955184;28;20055;-85
2022/05/31 09:09:24;;;;;;;4.03;2.80;;;16.30;57.10;;;;;;4974343;28;20106;-85
2022/05/31 09:12:01;;;;;;;3.22;2.60;;;16.30;57.00;;;;;;4957354;28;20035;-85
2022/05/31 09:14:55;;;;;;;4.55;2.70;;;16.30;56.90;;;;;;4957369;28;20030;-84
2022/05/31 09:17:26;;;;;;;3.47;2.58;;;16.40;57.00;;;;;;4987610;28;20023;-86
2022/05/31 09:19:57;;;;;;;4.05;3.10;;;16.40;56.80;;;;;;4973134;28;20037;-87
2022/05/31 09:22:24;;;;;;;3.17;2.75;;;16.50;56.90;;;;;;4974374;28;20495;-85
2022/05/31 09:24:49;;;;;;;3.72;2.80;;;16.60;56.80;;;;;;4973005;28;20029;-87
2022/05/31 09:27:20;;;;;;;3.35;2.63;;;16.60;56.80;;;;;;4972615;28;20121;-83
2022/05/31 09:29:57;;;;;;;3.28;2.47;;;16.70;56.80;;;;;;4965290;28;20061;-85
2022/05/31 09:32:47;;;;;;;4.20;2.90;;;16.80;56.80;;;;;;4953792;28;20035;-86
2022/05/31 09:35:34;;;;;;;3.20;2.40;;;16.80;56.70;;;;;;4960174;28;20045;-85
2022/05/31 09:38:14;;;;;;;3.30;2.42;;;17.00;56.70;;;;;;4966794;28;20030;-84
2022/05/31 09:40:47;;;;;;;3.80;2.50;;;17.00;56.60;;;;;;4972929;28;20034;-87
2022/05/31 09:43:30;;;;;;;3.08;2.45;;;17.20;56.50;;;;;;4972069;28;20034;-86
2022/05/31 09:46:09;;;;;;;3.08;2.30;;;17.30;56.60;;;;;;4972431;28;20031;-86
2022/05/31 09:48:46;;;;;;;3.25;2.50;;;17.40;56.50;;;;;;4974189;28;20023;-87
2022/05/31 09:51:24;;;;;;;2.78;2.40;;;17.50;56.50;;;;;;4967567;28;20051;-86
2022/05/31 09:57:13;;;;;;;3.20;2.50;;;17.70;56.30;;;;;;4971295;28;20035;-87
2022/05/31 10:00:01;;;;;;;2.95;2.40;;;17.80;56.20;;;;;;4973396;28;20126;-85
2022/05/31 10:03:02;;;;;;;2.83;2.20;;;18.00;56.30;;;;;;4973639;28;20503;-86
2022/05/31 10:05:31;;;;;;;2.60;2.05;;;18.10;56.30;;;;;;4940022;29;20054;-88
2022/05/31 10:07:57;;;;;;;2.55;2.10;;;18.20;56.20;;;;;;4967798;28;20113;-87
2022/05/31 10:10:35;;;;;;;2.92;2.22;;;18.30;56.10;;;;;;4988958;28;20030;-86
2022/05/31 10:13:09;;;;;;;2.50;2.08;;;18.50;56.10;;;;;;4964341;28;20061;-86
2022/05/31 10:15:44;;;;;;;2.10;1.90;;;18.60;55.90;;;;;;4961258;28;20126;-87
2022/05/31 10:18:13;;;;;;;1.83;1.73;;;18.70;55.90;;;;;;4971778;28;20057;-86
2022/05/31 10:21:04;;;;;;;3.15;2.00;;;18.90;55.80;;;;;;4945265;28;20018;-87
2022/05/31 10:23:37;;;;;;;2.00;1.80;;;19.00;55.80;;;;;;4961630;28;20046;-89
2022/05/31 10:26:27;;;;;;;2.47;1.83;;;19.10;55.60;;;;;;4975501;28;20027;-90
2022/05/31 10:30:23;;;;;;;2.40;1.60;;;19.20;55.50;;;;;;4897115;29;20072;-87
2022/05/31 10:33:23;;;;;;;;;;;19.40;55.40;;;;;;4873526;28;20429;-78
2022/05/31 10:36:23;;;;;;;1.67;1.55;;;19.60;55.10;;;;;;4946508;28;19946;-79
2022/05/31 10:38:50;;;;;;;1.92;1.55;;;19.70;55.00;;;;;;4955435;28;20507;-77
2022/05/31 10:41:42;;;;;;;2.05;1.60;;;19.80;54.80;;;;;;4972604;28;20049;-81
2022/05/31 10:44:31;;;;;;;1.98;1.60;;;19.90;54.80;;;;;;4945383;28;20361;-80
2022/05/31 10:47:00;;;;;;;2.83;1.77;;;20.00;54.70;;;;;;4967773;28;20027;-78
2022/05/31 10:49:26;;;;;;;2.05;1.73;;;20.20;54.40;;;;;;4954268;28;20367;-81
2022/05/31 10:52:01;;;;;;;2.03;1.70;;;20.30;54.20;;;;;;4970091;28;20061;-81
2022/05/31 10:54:54;;;;;;;2.92;1.80;;;20.40;54.10;;;;;;4970534;28;20097;-80
2022/05/31 10:57:19;;;;;;;2.83;1.65;;;20.50;54.00;;;;;;4961951;28;20015;-80
2022/05/31 10:59:57;;;;;;;2.35;1.90;;;20.50;53.80;;;;;;4954373;28;20018;-81
2022/05/31 11:02:40;;;;;;;2.35;1.88;;;20.60;53.70;;;;;;4955269;28;20041;-82
2022/05/31 11:05:12;;;;;;;2.42;1.70;;;20.70;53.70;;;;;;4971485;28;20035;-80
2022/05/31 11:11:29;;;;;;;2.13;1.60;;;20.90;53.60;;;;;;4961428;28;20023;-80
2022/05/31 11:14:19;;;;;;;1.60;1.40;;;21.00;53.50;;;;;;4904367;28;20051;-83
2022/05/31 11:17:22;;;;;;;1.98;1.67;;;21.00;53.40;;;;;;4965415;28;20026;-88
2022/05/31 11:20:12;;;;;;;1.58;1.40;;;21.10;53.40;;;;;;4971143;28;20023;-81
2022/05/31 11:23:10;;;;;;;1.52;1.42;;;21.20;53.40;;;;;;4971050;28;20066;-84
2022/05/31 11:25:58;;;;;;;1.48;1.38;;;21.20;53.30;;;;;;4937921;28;20042;-84
2022/05/31 11:28:45;;;;;;;2.00;1.55;;;21.30;53.30;;;;;;4956764;28;20025;-88
2022/05/31 11:31:17;;;;;;;2.70;1.90;;;21.30;53.30;;;;;;4955390;28;20121;-88
2022/05/31 11:34:31;;;;;;;2.53;1.83;;;21.40;53.30;;;;;;4971412;28;20113;-88
2022/05/31 11:37:33;;;;;;;1.63;1.33;;;21.40;53.40;;;;;;4964213;28;20105;-89
2022/05/31 11:40:19;;;;;;;2.22;1.40;;;21.40;53.30;;;;;;4956326;28;20023;-91
2022/05/31 11:43:12;;;;;;;1.58;1.40;;;21.50;53.20;;;;;;4971638;28;20031;-88
2022/05/31 11:46:07;;;;;;;1.45;1.33;;;21.50;53.30;;;;;;4958161;29;20035;-87
2022/05/31 11:48:44;;;;;;;1.92;1.52;;;21.60;53.40;;;;;;4962880;28;20026;-89
2022/05/31 11:51:34;;;;;;;2.45;1.50;;;21.60;53.40;;;;;;4970655;28;20158;-89
2022/05/31 11:54:41;;;;;;;2.95;1.70;;;21.60;53.40;;;;;;4959300;28;20035;-88
2022/05/31 11:57:38;;;;;;;1.15;1.10;;;21.70;53.50;;;;;;4958252;28;20375;-77
2022/05/31 12:00:08;;;;;;;1.45;1.30;;;21.70;53.60;;;;;;4974856;28;20027;-83
2022/05/31 12:02:39;;;;;;;;;;;21.70;53.50;;;;;;4973926;28;20057;-80
2022/05/31 12:05:19;;;;;;;2.00;1.30;;;21.80;53.60;;;;;;4981621;28;19977;-78
2022/05/31 12:08:00;;;;;;;1.55;1.40;;;21.80;53.60;;;;;;4965139;28;20069;-81
2022/05/31 12:10:29;;;;;;;1.30;1.20;;;21.80;53.70;;;;;;4978106;28;20038;-81
2022/05/31 12:13:05;;;;;;;1.42;1.25;;;21.80;53.60;;;;;;4957300;28;20045;-78
2022/05/31 12:15:35;;;;;;;1.75;1.50;;;21.80;53.60;;;;;;4974874;28;20034;-83
2022/05/31 12:18:12;;;;;;;1.40;1.30;;;21.90;53.60;;;;;;4975160;28;20062;-85
2022/05/31 12:20:57;;;;;;;1.40;1.30;;;21.90;53.40;;;;;;4973721;28;20121;-84
2022/05/31 12:23:40;;;;;;;1.95;1.42;;;21.90;53.50;;;;;;4973145;28;20055;-84
2022/05/31 12:26:36;;;;;;;2.05;1.40;;;21.90;53.50;;;;;;4968996;28;20030;-85
2022/05/31 12:29:05;;;;;;;1.35;1.25;;;22.00;53.50;;;;;;4999244;28;20535;-82
2022/05/31 12:31:35;;;;;;;1.77;1.42;;;22.00;53.50;;;;;;4953960;29;20027;-83
2022/05/31 12:34:34;;;;;;;1.40;1.30;;;22.00;53.50;;;;;;4961421;28;20098;-85
2022/05/31 12:37:15;;;;;;;1.60;1.27;;;22.00;53.60;;;;;;4970822;28;20033;-85
2022/05/31 12:39:50;;;;;;;1.60;1.30;;;22.10;53.60;;;;;;4950912;28;20034;-85
2022/05/31 12:42:25;;;;;;;1.77;1.30;;;22.10;53.60;;;;;;4957971;28;20035;-85
2022/05/31 12:45:14;;;;;;;2.65;1.52;;;22.10;53.60;;;;;;4973981;28;20029;-85
2022/05/31 12:47:40;;;;;;;1.30;1.17;;;22.10;53.60;;;;;;4957836;28;20462;-86
2022/05/31 12:50:10;;;;;;;1.40;1.30;;;22.20;53.60;;;;;;4941215;28;20027;-85
2022/05/31 12:55:31;;;;;;;1.30;1.20;;;22.20;53.50;;;;;;4968211;28;20038;-83
2022/05/31 12:58:29;;;;;;;1.10;1.10;;;22.20;53.40;;;;;;4973817;28;20033;-86
2022/05/31 13:01:11;;;;;;;1.60;1.27;;;22.20;53.30;;;;;;4972800;28;20054;-86
2022/05/31 13:03:43;;;;;;;1.67;1.48;;;22.30;53.30;;;;;;4971819;28;20029;-86
2022/05/31 13:06:14;;;;;;;1.63;1.27;;;22.30;53.30;;;;;;4957756;28;20113;-84
2022/05/31 13:08:52;;;;;;;1.42;1.25;;;22.30;53.30;;;;;;4973894;28;20046;-85
2022/05/31 13:20:36;;;;;;;2.25;1.30;;;22.30;53.30;;;;;;4963790;28;20038;-83
2022/05/31 13:23:22;;;;;;;1.30;1.20;;;22.40;53.20;;;;;;4957730;28;20097;-86
2022/05/31 13:26:20;;;;;;;2.47;1.30;;;22.40;53.20;;;;;;4946578;28;20192;-86
2022/05/31 13:28:59;;;;;;;1.42;1.30;;;22.40;53.10;;;;;;4961598;28;20042;-83
2022/05/31 13:31:27;;;;;;;1.20;1.10;;;22.40;53.00;;;;;;4973104;28;20390;-86
2022/05/31 13:34:01;;;;;;;1.00;1.00;;;22.40;52.90;;;;;;4965026;28;20038;-85
2022/05/31 13:36:30;;;;;;;1.50;1.40;;;22.50;52.90;;;;;;4973031;28;20026;-86
2022/05/31 13:39:04;;;;;;;1.23;1.13;;;22.50;52.80;;;;;;4972396;28;20577;-86
2022/05/31 13:41:31;;;;;;;1.30;1.20;;;22.50;52.70;;;;;;4978776;28;20081;-87
2022/05/31 13:44:03;;;;;;;1.20;1.10;;;22.60;52.70;;;;;;4957503;28;20039;-86
2022/05/31 13:46:35;;;;;;;1.40;1.25;;;22.50;52.60;;;;;;4972347;28;20019;-86
2022/05/31 13:49:40;;;;;;;2.08;1.15;;;22.60;52.50;;;;;;4973668;28;20023;-85
2022/05/31 13:52:29;;;;;;;2.42;1.20;;;22.60;52.50;;;;;;4975592;28;20050;-85
2022/05/31 13:55:16;;;;;;;1.75;1.40;;;22.60;52.40;;;;;;4974336;28;20027;-86
2022/05/31 13:57:54;;;;;;;1.65;1.30;;;22.60;53.00;;;;;;4961776;28;20499;-86
2022/05/31 14:00:42;;;;;;;1.48;1.35;;;22.60;52.80;;;;;;4964682;28;20030;-86
2022/05/31 14:03:17;;;;;;;1.85;1.40;;;22.60;52.20;;;;;;4972623;28;20050;-86
2022/05/31 14:06:00;;;;;;;1.38;1.23;;;22.60;52.00;;;;;;4973297;28;20065;-86